x

Apk - Aripeka, Fl (arpf1) Weather Station

7:54 - Wed 19th Sep 2018 All times are EDT. -4 hours from GMT.

  • Wind
  • Air Temp 87°f
  • Sea Pressure 1014.3mb
  • Apk - Aripeka, Fl
  • Apk - Aripeka, Fl

More Historic Weather Station data

Upgrade to MSW Pro to gain access to the past 30 days of data for over 8000 Wavebouys and Weather Stations around the globe.

Join

Comparision Forecast

View Surf forecast
   
mer. 09/19 7:54  -  1 mph 1014.3mb 87f
7:48  -  2 mph 1014.2mb 87f
6:54 5 8 mph 1013.4mb 89f
6:48 6 7 mph 1013.4mb 88f
5:54 5 8 mph 1013.4mb 89f
5:48 6 9 mph 1013.4mb 89f
4:54 6 10 mph 1013.5mb 89f
4:48 6 9 mph 1013.5mb 89f
2:54 8 11 mph 1014.2mb 89f
2:48 8 11 mph 1014.2mb 89f
1:54 8 10 mph 1014.8mb 88f
1:48 8 10 mph 1014.9mb 88f
12:54 7 8 mph 1015.5mb 88f
12:48 7 9 mph 1015.6mb 88f
11:54 6 8 mph 1015.9mb 87f
11:48 6 8 mph 1015.8mb 88f
10:54 6 8 mph 1015.7mb 87f
10:48 3 6 mph 1015.7mb 88f
9:54 1 2 mph 1015.3mb 88f
9:48 1 2 mph 1015.3mb 88f
8:54 1 3 mph 1015.2mb 86f
8:48 1 2 mph 1015mb 85f
7:54 2 3 mph 1014.7mb 79f
7:48 2 2 mph 1014.7mb 79f
5:54 2 3 mph 1013.8mb 78f
5:48  -  2 mph 1013.8mb 78f
4:54  -  2 mph 1013.7mb 80f
4:48  -  2 mph 1013.7mb 79f
2:54 2 3 mph 1013.8mb 80f
2:48 2 5 mph 1013.9mb 80f
1:54 2 5 mph 1014.1mb 80f
1:48 2 3 mph 1014.1mb 80f
12:54 1 2 mph 1014.3mb 80f
12:48  -  1 mph 1014.3mb 80f
mar. 09/18 11:54  -  1 mph 1014.4mb 81f
11:48  -  1 mph 1014.4mb 81f
10:54 1 2 mph 1014.7mb 83f
10:48  -  1 mph 1014.7mb 83f
9:54 2 5 mph 1014.1mb 87f
9:48 2 5 mph 1014.1mb 87f
8:54 3 7 mph 1013.3mb 87f
8:48 3 7 mph 1013.3mb 87f
7:54 5 8 mph 1013mb 88f
7:48 2 6 mph 1012.9mb 87f
6:54 5 10 mph 1012.7mb 89f
6:48 6 7 mph 1012.8mb 89f
4:54 9 11 mph 1012.8mb 89f
4:48 9 10 mph 1012.7mb 89f
3:54 8 9 mph 1013mb 89f
3:48 8 9 mph 1013.1mb 89f
2:54 7 9 mph 1014mb 89f
2:48 8 9 mph 1014.1mb 89f
12:54 8 10 mph 1015.2mb 87f
12:48 9 10 mph 1015.2mb 87f
11:54 6 8 mph 1015.4mb 88f
11:48 7 8 mph 1015.4mb 87f
10:54 3 6 mph 1015.8mb 88f
10:48 3 5 mph 1015.7mb 89f
8:54 2 6 mph 1015.9mb 83f
8:48 2 5 mph 1015.9mb 83f
7:54 2 5 mph 1015.8mb 80f
7:48 3 5 mph 1015.7mb 79f
6:54 2 3 mph 1015.6mb 79f
6:48 2 3 mph 1015.6mb 79f
5:54 2 3 mph 1015.1mb 79f
5:48 3 5 mph 1015mb 79f
4:54 1 2 mph 1014.8mb 80f
4:48  -  2 mph 1014.8mb 80f
3:54 2 5 mph 1014.9mb 80f
3:48 2 3 mph 1014.9mb 80f
1:54 3 7 mph 1015.6mb 80f
1:48 3 6 mph 1015.6mb 79f
12:54 5 8 mph 1015.6mb 80f
12:48 5 7 mph 1015.6mb 80f
lun. 09/17 11:54 2 3 mph 1015.6mb 80f
11:48 1 3 mph 1015.6mb 80f
10:54 2 3 mph 1015mb 81f
10:48 2 5 mph 1014.9mb 81f
9:54  -  1 mph 1014.7mb 83f
9:48  -  0 mph 1014.6mb 82f
8:54  -  1 mph 1014.3mb 83f
8:48  -  0 mph 1014.3mb 84f
7:54  -  1 mph 1014.3mb 83f
7:48  -  2 mph 1014.3mb 83f
6:54 6 8 mph 1014.3mb 82f
6:48 8 11 mph 1014.5mb 83f
5:54 8 10 mph 1014mb 89f
5:48 9 11 mph 1013.9mb 89f
4:54 10 14 mph 1013.6mb 89f
4:48 10 13 mph 1013.6mb 89f
3:54 10 14 mph 1013.9mb 89f
3:48 9 11 mph 1014mb 89f
2:54 10 15 mph 1014.4mb 89f
2:48 9 13 mph 1014.5mb 89f
12:54 8 10 mph 1015.5mb 89f
12:48 7 9 mph 1015.6mb 88f
11:54 3 6 mph 1015.9mb 90f
11:48 2 5 mph 1016mb 90f
10:54 3 8 mph 1016.2mb 89f
10:48 3 7 mph 1016.1mb 89f
9:54 5 8 mph 1015.7mb 87f
9:48 3 6 mph 1015.6mb 87f
8:54 2 7 mph 1015.6mb 84f
8:48 3 5 mph 1015.5mb 83f
7:54 2 5 mph 1015.1mb 80f
7:48 2 5 mph 1015.1mb 80f
6:54 2 5 mph 1014.8mb 80f
6:48 2 6 mph 1014.7mb 80f
5:54 2 3 mph 1014.1mb 80f
5:48 2 5 mph 1014.1mb 80f
4:54 2 5 mph 1013.8mb 80f
4:48 2 5 mph 1013.8mb 80f
3:54 2 3 mph 1013.8mb 81f
3:48 1 3 mph 1013.8mb 80f
2:54 2 3 mph 1013.8mb 81f
2:48 2 3 mph 1013.8mb 81f
1:54 1 3 mph 1013.9mb 82f
1:48 2 5 mph 1013.9mb 82f